sensor_id;sensor_type;location;lat;lon;timestamp;P1;durP1;ratioP1;P2;durP2;ratioP2
1400;SDS011;46518;48.842;8.926;2023-04-24T00:01:46;2.05;;;1.08;;
1400;SDS011;46518;48.842;8.926;2023-04-24T00:04:16;1.15;;;0.98;;
1400;SDS011;46518;48.842;8.926;2023-04-24T00:06:45;2.45;;;1.30;;
1400;SDS011;46518;48.842;8.926;2023-04-24T00:09:16;2.20;;;1.40;;
1400;SDS011;46518;48.842;8.926;2023-04-24T00:11:44;1.77;;;1.38;;
1400;SDS011;46518;48.842;8.926;2023-04-24T00:14:12;2.38;;;1.20;;
1400;SDS011;46518;48.842;8.926;2023-04-24T00:16:41;1.55;;;1.00;;
1400;SDS011;46518;48.842;8.926;2023-04-24T00:19:09;2.35;;;1.05;;
1400;SDS011;46518;48.842;8.926;2023-04-24T00:21:40;2.78;;;1.80;;
1400;SDS011;46518;48.842;8.926;2023-04-24T00:24:09;4.18;;;1.33;;
1400;SDS011;46518;48.842;8.926;2023-04-24T00:26:37;2.13;;;0.95;;
1400;SDS011;46518;48.842;8.926;2023-04-24T00:29:05;1.10;;;1.00;;
1400;SDS011;46518;48.842;8.926;2023-04-24T00:31:33;2.35;;;0.98;;
1400;SDS011;46518;48.842;8.926;2023-04-24T00:34:01;1.33;;;1.23;;
1400;SDS011;46518;48.842;8.926;2023-04-24T00:36:30;1.08;;;0.98;;
1400;SDS011;46518;48.842;8.926;2023-04-24T00:39:00;1.58;;;1.10;;
1400;SDS011;46518;48.842;8.926;2023-04-24T00:41:28;1.90;;;1.00;;
1400;SDS011;46518;48.842;8.926;2023-04-24T00:43:57;1.52;;;1.45;;
1400;SDS011;46518;48.842;8.926;2023-04-24T00:46:25;2.22;;;1.10;;
1400;SDS011;46518;48.842;8.926;2023-04-24T00:48:54;1.00;;;0.90;;
1400;SDS011;46518;48.842;8.926;2023-04-24T00:51:23;1.45;;;1.35;;
1400;SDS011;46518;48.842;8.926;2023-04-24T00:53:52;2.17;;;1.10;;
1400;SDS011;46518;48.842;8.926;2023-04-24T00:56:21;1.48;;;1.25;;
1400;SDS011;46518;48.842;8.926;2023-04-24T00:58:49;1.88;;;1.58;;
1400;SDS011;46518;48.842;8.926;2023-04-24T01:01:18;2.28;;;1.20;;
1400;SDS011;46518;48.842;8.926;2023-04-24T01:03:50;1.95;;;1.10;;
1400;SDS011;46518;48.842;8.926;2023-04-24T01:06:21;2.65;;;1.80;;
1400;SDS011;46518;48.842;8.926;2023-04-24T01:08:50;1.83;;;1.10;;
1400;SDS011;46518;48.842;8.926;2023-04-24T01:11:18;1.83;;;0.95;;
1400;SDS011;46518;48.842;8.926;2023-04-24T01:13:47;1.40;;;1.13;;
1400;SDS011;46518;48.842;8.926;2023-04-24T01:16:16;1.10;;;1.00;;
1400;SDS011;46518;48.842;8.926;2023-04-24T01:18:47;3.83;;;1.00;;
1400;SDS011;46518;48.842;8.926;2023-04-24T01:21:17;3.72;;;1.17;;
1400;SDS011;46518;48.842;8.926;2023-04-24T01:23:48;1.13;;;1.00;;
1400;SDS011;46518;48.842;8.926;2023-04-24T01:26:17;1.95;;;1.00;;
1400;SDS011;46518;48.842;8.926;2023-04-24T01:28:46;2.22;;;0.93;;
1400;SDS011;46518;48.842;8.926;2023-04-24T01:31:15;1.70;;;1.25;;
1400;SDS011;46518;48.842;8.926;2023-04-24T01:33:44;1.50;;;0.93;;
1400;SDS011;46518;48.842;8.926;2023-04-24T01:36:12;1.60;;;0.90;;
1400;SDS011;46518;48.842;8.926;2023-04-24T01:38:41;3.72;;;1.10;;
1400;SDS011;46518;48.842;8.926;2023-04-24T01:41:10;2.10;;;1.20;;
1400;SDS011;46518;48.842;8.926;2023-04-24T01:43:38;1.10;;;0.98;;
1400;SDS011;46518;48.842;8.926;2023-04-24T01:46:07;1.65;;;1.10;;
1400;SDS011;46518;48.842;8.926;2023-04-24T01:48:35;1.20;;;1.10;;
1400;SDS011;46518;48.842;8.926;2023-04-24T01:51:03;0.90;;;0.80;;
1400;SDS011;46518;48.842;8.926;2023-04-24T01:53:32;1.30;;;1.00;;
1400;SDS011;46518;48.842;8.926;2023-04-24T01:56:01;0.80;;;0.80;;
1400;SDS011;46518;48.842;8.926;2023-04-24T01:58:32;1.42;;;1.00;;
1400;SDS011;46518;48.842;8.926;2023-04-24T02:01:01;1.33;;;1.20;;
1400;SDS011;46518;48.842;8.926;2023-04-24T02:03:29;1.50;;;1.27;;
1400;SDS011;46518;48.842;8.926;2023-04-24T02:05:58;1.13;;;1.02;;
1400;SDS011;46518;48.842;8.926;2023-04-24T02:08:26;1.00;;;1.00;;
1400;SDS011;46518;48.842;8.926;2023-04-24T02:10:54;3.25;;;1.33;;
1400;SDS011;46518;48.842;8.926;2023-04-24T02:13:22;1.98;;;1.20;;
1400;SDS011;46518;48.842;8.926;2023-04-24T02:15:51;1.08;;;1.08;;
1400;SDS011;46518;48.842;8.926;2023-04-24T02:18:19;1.30;;;1.10;;
1400;SDS011;46518;48.842;8.926;2023-04-24T02:20:49;2.65;;;1.25;;
1400;SDS011;46518;48.842;8.926;2023-04-24T02:23:19;1.60;;;1.35;;
1400;SDS011;46518;48.842;8.926;2023-04-24T02:25:47;1.98;;;1.27;;
1400;SDS011;46518;48.842;8.926;2023-04-24T02:28:16;2.35;;;1.50;;
1400;SDS011;46518;48.842;8.926;2023-04-24T02:30:44;1.50;;;1.40;;
1400;SDS011;46518;48.842;8.926;2023-04-24T02:33:14;1.02;;;1.02;;
1400;SDS011;46518;48.842;8.926;2023-04-24T02:35:42;1.40;;;1.30;;
1400;SDS011;46518;48.842;8.926;2023-04-24T02:38:10;1.63;;;1.35;;
1400;SDS011;46518;48.842;8.926;2023-04-24T02:40:39;3.38;;;1.70;;
1400;SDS011;46518;48.842;8.926;2023-04-24T02:43:09;2.10;;;1.55;;
1400;SDS011;46518;48.842;8.926;2023-04-24T02:45:37;2.65;;;1.42;;
1400;SDS011;46518;48.842;8.926;2023-04-24T02:48:06;1.52;;;1.30;;
1400;SDS011;46518;48.842;8.926;2023-04-24T02:50:35;1.15;;;1.05;;
1400;SDS011;46518;48.842;8.926;2023-04-24T02:53:03;1.35;;;1.25;;
1400;SDS011;46518;48.842;8.926;2023-04-24T02:55:32;0.90;;;0.90;;
1400;SDS011;46518;48.842;8.926;2023-04-24T02:58:00;2.17;;;1.33;;
1400;SDS011;46518;48.842;8.926;2023-04-24T03:00:28;1.50;;;1.30;;
1400;SDS011;46518;48.842;8.926;2023-04-24T03:02:56;1.80;;;1.48;;
1400;SDS011;46518;48.842;8.926;2023-04-24T03:05:24;3.28;;;1.40;;
1400;SDS011;46518;48.842;8.926;2023-04-24T03:07:55;1.73;;;1.45;;
1400;SDS011;46518;48.842;8.926;2023-04-24T03:10:23;2.22;;;1.10;;
1400;SDS011;46518;48.842;8.926;2023-04-24T03:12:51;1.50;;;1.40;;
1400;SDS011;46518;48.842;8.926;2023-04-24T03:15:21;1.55;;;1.45;;
1400;SDS011;46518;48.842;8.926;2023-04-24T03:17:49;1.75;;;1.50;;
1400;SDS011;46518;48.842;8.926;2023-04-24T03:20:20;2.35;;;2.15;;
1400;SDS011;46518;48.842;8.926;2023-04-24T03:22:48;3.60;;;1.27;;
1400;SDS011;46518;48.842;8.926;2023-04-24T03:25:18;2.72;;;1.60;;
1400;SDS011;46518;48.842;8.926;2023-04-24T03:27:47;1.23;;;1.15;;
1400;SDS011;46518;48.842;8.926;2023-04-24T03:30:41;2.10;;;1.13;;
1400;SDS011;46518;48.842;8.926;2023-04-24T03:33:10;1.92;;;1.25;;
1400;SDS011;46518;48.842;8.926;2023-04-24T03:35:46;1.73;;;1.40;;
1400;SDS011;46518;48.842;8.926;2023-04-24T03:38:14;1.20;;;1.10;;
1400;SDS011;46518;48.842;8.926;2023-04-24T03:41:04;1.67;;;1.20;;
1400;SDS011;46518;48.842;8.926;2023-04-24T03:43:37;2.92;;;2.28;;
1400;SDS011;46518;48.842;8.926;2023-04-24T03:46:06;1.60;;;1.50;;
1400;SDS011;46518;48.842;8.926;2023-04-24T03:48:40;3.20;;;1.88;;
1400;SDS011;46518;48.842;8.926;2023-04-24T03:51:09;1.40;;;1.30;;
1400;SDS011;46518;48.842;8.926;2023-04-24T03:53:41;1.40;;;1.30;;
1400;SDS011;46518;48.842;8.926;2023-04-24T03:56:12;1.50;;;1.40;;
1400;SDS011;46518;48.842;8.926;2023-04-24T03:58:41;1.52;;;1.42;;
1400;SDS011;46518;48.842;8.926;2023-04-24T04:01:10;1.95;;;1.40;;
1400;SDS011;46518;48.842;8.926;2023-04-24T04:03:57;1.10;;;1.00;;
1400;SDS011;46518;48.842;8.926;2023-04-24T04:06:26;1.52;;;1.42;;
1400;SDS011;46518;48.842;8.926;2023-04-24T04:08:56;1.77;;;1.67;;
1400;SDS011;46518;48.842;8.926;2023-04-24T04:11:26;3.03;;;1.50;;
1400;SDS011;46518;48.842;8.926;2023-04-24T04:13:54;2.30;;;2.00;;
1400;SDS011;46518;48.842;8.926;2023-04-24T04:16:24;2.28;;;2.05;;
1400;SDS011;46518;48.842;8.926;2023-04-24T04:18:57;4.13;;;2.38;;
1400;SDS011;46518;48.842;8.926;2023-04-24T04:21:25;1.60;;;1.50;;
1400;SDS011;46518;48.842;8.926;2023-04-24T04:24:04;2.83;;;1.85;;
1400;SDS011;46518;48.842;8.926;2023-04-24T04:26:39;1.75;;;1.65;;
1400;SDS011;46518;48.842;8.926;2023-04-24T04:29:09;2.33;;;2.15;;
1400;SDS011;46518;48.842;8.926;2023-04-24T04:31:42;1.90;;;1.80;;
1400;SDS011;46518;48.842;8.926;2023-04-24T04:34:12;1.77;;;1.50;;
1400;SDS011;46518;48.842;8.926;2023-04-24T04:36:41;1.90;;;1.75;;
1400;SDS011;46518;48.842;8.926;2023-04-24T04:39:31;1.88;;;1.73;;
1400;SDS011;46518;48.842;8.926;2023-04-24T04:42:04;3.08;;;1.90;;
1400;SDS011;46518;48.842;8.926;2023-04-24T04:44:39;1.95;;;1.85;;
1400;SDS011;46518;48.842;8.926;2023-04-24T04:47:12;2.03;;;1.83;;
1400;SDS011;46518;48.842;8.926;2023-04-24T04:49:41;1.90;;;1.80;;
1400;SDS011;46518;48.842;8.926;2023-04-24T04:52:19;1.67;;;1.58;;
1400;SDS011;46518;48.842;8.926;2023-04-24T04:54:57;2.65;;;1.85;;
1400;SDS011;46518;48.842;8.926;2023-04-24T04:57:42;2.83;;;2.00;;
1400;SDS011;46518;48.842;8.926;2023-04-24T05:00:10;2.10;;;1.90;;
1400;SDS011;46518;48.842;8.926;2023-04-24T05:02:47;2.00;;;1.90;;
1400;SDS011;46518;48.842;8.926;2023-04-24T05:05:15;2.63;;;1.83;;
1400;SDS011;46518;48.842;8.926;2023-04-24T05:07:44;2.10;;;2.00;;
1400;SDS011;46518;48.842;8.926;2023-04-24T05:10:13;2.20;;;2.00;;
1400;SDS011;46518;48.842;8.926;2023-04-24T05:12:42;1.92;;;1.80;;
1400;SDS011;46518;48.842;8.926;2023-04-24T05:15:12;2.30;;;2.10;;
1400;SDS011;46518;48.842;8.926;2023-04-24T05:17:40;1.88;;;1.77;;
1400;SDS011;46518;48.842;8.926;2023-04-24T05:20:09;2.60;;;2.40;;
1400;SDS011;46518;48.842;8.926;2023-04-24T05:22:38;2.30;;;2.20;;
1400;SDS011;46518;48.842;8.926;2023-04-24T05:25:06;2.03;;;1.92;;
1400;SDS011;46518;48.842;8.926;2023-04-24T05:27:40;3.45;;;2.92;;
1400;SDS011;46518;48.842;8.926;2023-04-24T05:30:15;4.70;;;3.17;;
1400;SDS011;46518;48.842;8.926;2023-04-24T05:32:43;3.20;;;2.85;;
1400;SDS011;46518;48.842;8.926;2023-04-24T05:35:12;3.97;;;3.00;;
1400;SDS011;46518;48.842;8.926;2023-04-24T05:37:40;2.70;;;2.50;;
1400;SDS011;46518;48.842;8.926;2023-04-24T05:40:10;3.75;;;3.40;;
1400;SDS011;46518;48.842;8.926;2023-04-24T05:42:39;5.25;;;3.60;;
1400;SDS011;46518;48.842;8.926;2023-04-24T05:45:07;5.13;;;3.58;;
1400;SDS011;46518;48.842;8.926;2023-04-24T05:47:42;3.85;;;3.55;;
1400;SDS011;46518;48.842;8.926;2023-04-24T05:50:11;3.45;;;3.15;;
1400;SDS011;46518;48.842;8.926;2023-04-24T05:52:40;3.55;;;3.08;;
1400;SDS011;46518;48.842;8.926;2023-04-24T05:55:22;4.20;;;3.78;;
1400;SDS011;46518;48.842;8.926;2023-04-24T05:57:51;5.47;;;3.42;;
1400;SDS011;46518;48.842;8.926;2023-04-24T06:00:20;3.25;;;2.95;;
1400;SDS011;46518;48.842;8.926;2023-04-24T06:02:59;3.00;;;2.75;;
1400;SDS011;46518;48.842;8.926;2023-04-24T06:05:28;3.30;;;3.00;;
1400;SDS011;46518;48.842;8.926;2023-04-24T06:07:57;4.97;;;2.95;;
1400;SDS011;46518;48.842;8.926;2023-04-24T06:10:30;3.13;;;2.83;;
1400;SDS011;46518;48.842;8.926;2023-04-24T06:12:58;3.20;;;2.90;;
1400;SDS011;46518;48.842;8.926;2023-04-24T06:15:29;2.63;;;2.42;;
1400;SDS011;46518;48.842;8.926;2023-04-24T06:18:12;3.97;;;3.08;;
1400;SDS011;46518;48.842;8.926;2023-04-24T06:20:41;4.38;;;2.90;;
1400;SDS011;46518;48.842;8.926;2023-04-24T06:23:09;3.20;;;2.90;;
1400;SDS011;46518;48.842;8.926;2023-04-24T06:25:38;4.15;;;3.15;;
1400;SDS011;46518;48.842;8.926;2023-04-24T06:28:06;4.28;;;2.60;;
1400;SDS011;46518;48.842;8.926;2023-04-24T06:30:34;3.42;;;2.83;;
1400;SDS011;46518;48.842;8.926;2023-04-24T06:33:03;3.03;;;2.83;;
1400;SDS011;46518;48.842;8.926;2023-04-24T06:35:47;2.50;;;2.30;;
1400;SDS011;46518;48.842;8.926;2023-04-24T06:38:15;3.25;;;2.95;;
1400;SDS011;46518;48.842;8.926;2023-04-24T06:40:43;4.35;;;3.60;;
1400;SDS011;46518;48.842;8.926;2023-04-24T06:43:12;2.83;;;2.63;;
1400;SDS011;46518;48.842;8.926;2023-04-24T06:45:41;4.22;;;3.22;;
1400;SDS011;46518;48.842;8.926;2023-04-24T06:48:10;3.17;;;2.97;;
1400;SDS011;46518;48.842;8.926;2023-04-24T06:50:38;2.95;;;2.65;;
1400;SDS011;46518;48.842;8.926;2023-04-24T06:53:08;4.20;;;3.42;;
1400;SDS011;46518;48.842;8.926;2023-04-24T06:55:39;4.18;;;3.60;;
1400;SDS011;46518;48.842;8.926;2023-04-24T06:58:08;3.30;;;3.00;;
1400;SDS011;46518;48.842;8.926;2023-04-24T07:00:36;2.67;;;2.40;;
1400;SDS011;46518;48.842;8.926;2023-04-24T07:03:04;4.10;;;3.50;;
1400;SDS011;46518;48.842;8.926;2023-04-24T07:05:32;2.92;;;2.65;;
1400;SDS011;46518;48.842;8.926;2023-04-24T07:08:02;4.53;;;3.17;;
1400;SDS011;46518;48.842;8.926;2023-04-24T07:10:32;3.75;;;2.50;;
1400;SDS011;46518;48.842;8.926;2023-04-24T07:13:02;3.38;;;2.78;;
1400;SDS011;46518;48.842;8.926;2023-04-24T07:15:30;3.40;;;2.83;;
1400;SDS011;46518;48.842;8.926;2023-04-24T07:17:58;2.75;;;2.50;;
1400;SDS011;46518;48.842;8.926;2023-04-24T07:20:31;2.58;;;2.30;;
1400;SDS011;46518;48.842;8.926;2023-04-24T07:22:59;3.58;;;2.63;;
1400;SDS011;46518;48.842;8.926;2023-04-24T07:25:28;3.65;;;3.35;;
1400;SDS011;46518;48.842;8.926;2023-04-24T07:27:57;3.35;;;3.05;;
1400;SDS011;46518;48.842;8.926;2023-04-24T07:30:25;2.42;;;2.22;;
1400;SDS011;46518;48.842;8.926;2023-04-24T07:32:55;3.97;;;2.80;;
1400;SDS011;46518;48.842;8.926;2023-04-24T07:35:24;2.70;;;2.50;;
1400;SDS011;46518;48.842;8.926;2023-04-24T07:37:53;2.40;;;2.22;;
1400;SDS011;46518;48.842;8.926;2023-04-24T07:40:21;4.10;;;2.65;;
1400;SDS011;46518;48.842;8.926;2023-04-24T07:42:50;4.20;;;2.45;;
1400;SDS011;46518;48.842;8.926;2023-04-24T07:45:20;3.33;;;2.70;;
1400;SDS011;46518;48.842;8.926;2023-04-24T07:47:50;3.50;;;2.00;;
1400;SDS011;46518;48.842;8.926;2023-04-24T07:50:18;2.30;;;2.10;;
1400;SDS011;46518;48.842;8.926;2023-04-24T07:52:47;2.90;;;2.60;;
1400;SDS011;46518;48.842;8.926;2023-04-24T07:55:16;3.00;;;2.53;;
1400;SDS011;46518;48.842;8.926;2023-04-24T07:57:48;2.90;;;2.45;;
1400;SDS011;46518;48.842;8.926;2023-04-24T08:00:17;2.90;;;2.35;;
1400;SDS011;46518;48.842;8.926;2023-04-24T08:02:47;2.72;;;2.53;;
1400;SDS011;46518;48.842;8.926;2023-04-24T08:05:16;2.20;;;2.00;;
1400;SDS011;46518;48.842;8.926;2023-04-24T08:07:45;2.65;;;2.35;;
1400;SDS011;46518;48.842;8.926;2023-04-24T08:10:15;2.70;;;2.50;;
1400;SDS011;46518;48.842;8.926;2023-04-24T08:12:44;3.47;;;2.60;;
1400;SDS011;46518;48.842;8.926;2023-04-24T08:15:12;3.00;;;2.28;;
1400;SDS011;46518;48.842;8.926;2023-04-24T08:17:41;4.72;;;2.55;;
1400;SDS011;46518;48.842;8.926;2023-04-24T08:20:11;2.45;;;2.25;;
1400;SDS011;46518;48.842;8.926;2023-04-24T08:22:41;2.70;;;2.50;;
1400;SDS011;46518;48.842;8.926;2023-04-24T08:25:11;2.58;;;2.38;;
1400;SDS011;46518;48.842;8.926;2023-04-24T08:27:39;2.53;;;2.33;;
1400;SDS011;46518;48.842;8.926;2023-04-24T08:30:08;8.35;;;2.92;;
1400;SDS011;46518;48.842;8.926;2023-04-24T08:32:36;2.38;;;2.25;;
1400;SDS011;46518;48.842;8.926;2023-04-24T08:35:05;2.60;;;2.42;;
1400;SDS011;46518;48.842;8.926;2023-04-24T08:37:39;2.58;;;2.38;;
1400;SDS011;46518;48.842;8.926;2023-04-24T08:40:13;2.85;;;2.63;;
1400;SDS011;46518;48.842;8.926;2023-04-24T08:42:42;2.50;;;1.92;;
1400;SDS011;46518;48.842;8.926;2023-04-24T08:45:12;3.20;;;2.17;;
1400;SDS011;46518;48.842;8.926;2023-04-24T08:47:41;2.78;;;2.28;;
1400;SDS011;46518;48.842;8.926;2023-04-24T08:50:11;2.50;;;2.17;;
1400;SDS011;46518;48.842;8.926;2023-04-24T08:52:40;3.58;;;2.50;;
1400;SDS011;46518;48.842;8.926;2023-04-24T08:55:10;3.90;;;2.28;;
1400;SDS011;46518;48.842;8.926;2023-04-24T08:57:38;1.83;;;1.73;;
1400;SDS011;46518;48.842;8.926;2023-04-24T09:00:08;1.80;;;1.15;;
1400;SDS011;46518;48.842;8.926;2023-04-24T09:02:39;2.45;;;1.30;;
1400;SDS011;46518;48.842;8.926;2023-04-24T09:05:11;1.85;;;1.35;;
1400;SDS011;46518;48.842;8.926;2023-04-24T09:07:43;2.67;;;1.45;;
1400;SDS011;46518;48.842;8.926;2023-04-24T09:10:14;2.85;;;1.58;;
1400;SDS011;46518;48.842;8.926;2023-04-24T09:12:44;2.05;;;1.75;;
1400;SDS011;46518;48.842;8.926;2023-04-24T09:15:13;2.17;;;1.77;;
1400;SDS011;46518;48.842;8.926;2023-04-24T09:17:43;2.08;;;1.90;;
1400;SDS011;46518;48.842;8.926;2023-04-24T09:20:12;2.58;;;1.60;;
1400;SDS011;46518;48.842;8.926;2023-04-24T09:22:42;2.35;;;2.15;;
1400;SDS011;46518;48.842;8.926;2023-04-24T09:25:13;3.75;;;1.77;;
1400;SDS011;46518;48.842;8.926;2023-04-24T09:27:42;3.67;;;2.08;;
1400;SDS011;46518;48.842;8.926;2023-04-24T09:30:12;2.47;;;2.05;;
1400;SDS011;46518;48.842;8.926;2023-04-24T09:32:41;1.90;;;1.80;;
1400;SDS011;46518;48.842;8.926;2023-04-24T09:35:11;2.88;;;2.22;;
1400;SDS011;46518;48.842;8.926;2023-04-24T09:37:41;2.67;;;2.30;;
1400;SDS011;46518;48.842;8.926;2023-04-24T09:40:13;3.40;;;2.20;;
1400;SDS011;46518;48.842;8.926;2023-04-24T09:42:43;2.65;;;2.40;;
1400;SDS011;46518;48.842;8.926;2023-04-24T09:45:13;2.60;;;2.42;;
1400;SDS011;46518;48.842;8.926;2023-04-24T09:47:42;2.20;;;2.00;;
1400;SDS011;46518;48.842;8.926;2023-04-24T09:50:14;2.50;;;1.98;;
1400;SDS011;46518;48.842;8.926;2023-04-24T09:52:46;3.13;;;2.85;;
1400;SDS011;46518;48.842;8.926;2023-04-24T09:55:23;3.00;;;2.70;;
1400;SDS011;46518;48.842;8.926;2023-04-24T09:57:53;2.40;;;2.20;;
1400;SDS011;46518;48.842;8.926;2023-04-24T10:00:23;2.15;;;1.95;;
1400;SDS011;46518;48.842;8.926;2023-04-24T10:02:57;2.10;;;2.00;;
1400;SDS011;46518;48.842;8.926;2023-04-24T10:05:27;2.38;;;2.17;;
1400;SDS011;46518;48.842;8.926;2023-04-24T10:07:59;2.10;;;1.90;;
1400;SDS011;46518;48.842;8.926;2023-04-24T10:10:29;2.25;;;2.00;;
1400;SDS011;46518;48.842;8.926;2023-04-24T10:12:58;2.88;;;2.58;;
1400;SDS011;46518;48.842;8.926;2023-04-24T10:15:27;1.88;;;1.77;;
1400;SDS011;46518;48.842;8.926;2023-04-24T10:17:55;3.35;;;1.73;;
1400;SDS011;46518;48.842;8.926;2023-04-24T10:20:27;3.05;;;2.28;;
1400;SDS011;46518;48.842;8.926;2023-04-24T10:22:59;2.55;;;2.35;;
1400;SDS011;46518;48.842;8.926;2023-04-24T10:25:29;4.63;;;2.45;;
1400;SDS011;46518;48.842;8.926;2023-04-24T10:27:59;2.25;;;2.05;;
1400;SDS011;46518;48.842;8.926;2023-04-24T10:30:29;1.90;;;1.80;;
1400;SDS011;46518;48.842;8.926;2023-04-24T10:33:01;5.10;;;2.40;;
1400;SDS011;46518;48.842;8.926;2023-04-24T10:35:31;2.67;;;1.90;;
1400;SDS011;46518;48.842;8.926;2023-04-24T10:38:05;2.20;;;1.95;;
1400;SDS011;46518;48.842;8.926;2023-04-24T10:40:36;4.00;;;2.35;;
1400;SDS011;46518;48.842;8.926;2023-04-24T10:43:05;2.92;;;2.10;;
1400;SDS011;46518;48.842;8.926;2023-04-24T10:45:37;2.47;;;2.05;;
1400;SDS011;46518;48.842;8.926;2023-04-24T10:48:07;2.67;;;2.40;;
1400;SDS011;46518;48.842;8.926;2023-04-24T10:50:44;2.30;;;1.83;;
1400;SDS011;46518;48.842;8.926;2023-04-24T10:53:16;2.20;;;2.10;;
1400;SDS011;46518;48.842;8.926;2023-04-24T10:55:47;2.30;;;2.08;;
1400;SDS011;46518;48.842;8.926;2023-04-24T10:58:21;2.75;;;2.55;;
1400;SDS011;46518;48.842;8.926;2023-04-24T11:00:55;2.17;;;1.95;;
1400;SDS011;46518;48.842;8.926;2023-04-24T11:03:26;2.20;;;2.03;;
1400;SDS011;46518;48.842;8.926;2023-04-24T11:05:57;2.85;;;2.38;;
1400;SDS011;46518;48.842;8.926;2023-04-24T11:08:29;2.53;;;2.30;;
1400;SDS011;46518;48.842;8.926;2023-04-24T11:11:00;2.55;;;2.35;;
1400;SDS011;46518;48.842;8.926;2023-04-24T11:16:43;3.45;;;3.15;;
1400;SDS011;46518;48.842;8.926;2023-04-24T11:19:21;3.20;;;2.95;;
1400;SDS011;46518;48.842;8.926;2023-04-24T11:21:55;2.60;;;2.40;;
1400;SDS011;46518;48.842;8.926;2023-04-24T11:24:29;2.28;;;2.08;;
1400;SDS011;46518;48.842;8.926;2023-04-24T11:27:03;2.10;;;1.80;;
1400;SDS011;46518;48.842;8.926;2023-04-24T11:29:38;1.85;;;1.75;;
1400;SDS011;46518;48.842;8.926;2023-04-24T11:32:15;2.42;;;2.15;;
1400;SDS011;46518;48.842;8.926;2023-04-24T11:34:51;1.83;;;1.70;;
1400;SDS011;46518;48.842;8.926;2023-04-24T11:37:21;8.18;;;3.08;;
1400;SDS011;46518;48.842;8.926;2023-04-24T11:39:52;2.72;;;2.03;;
1400;SDS011;46518;48.842;8.926;2023-04-24T11:42:21;3.28;;;2.28;;
1400;SDS011;46518;48.842;8.926;2023-04-24T11:44:53;2.70;;;2.50;;
1400;SDS011;46518;48.842;8.926;2023-04-24T11:47:28;3.00;;;2.38;;
1400;SDS011;46518;48.842;8.926;2023-04-24T11:49:57;4.50;;;2.95;;
1400;SDS011;46518;48.842;8.926;2023-04-24T11:52:28;3.58;;;3.25;;
1400;SDS011;46518;48.842;8.926;2023-04-24T11:54:59;3.75;;;2.58;;
1400;SDS011;46518;48.842;8.926;2023-04-24T11:57:28;2.45;;;2.25;;
1400;SDS011;46518;48.842;8.926;2023-04-24T12:00:00;3.47;;;2.50;;
1400;SDS011;46518;48.842;8.926;2023-04-24T12:02:37;2.42;;;2.25;;
1400;SDS011;46518;48.842;8.926;2023-04-24T12:05:06;2.53;;;2.33;;
1400;SDS011;46518;48.842;8.926;2023-04-24T12:07:39;1.75;;;1.65;;
1400;SDS011;46518;48.842;8.926;2023-04-24T12:10:11;2.95;;;2.50;;
1400;SDS011;46518;48.842;8.926;2023-04-24T12:12:39;3.08;;;2.30;;
1400;SDS011;46518;48.842;8.926;2023-04-24T12:15:08;2.75;;;2.30;;
1400;SDS011;46518;48.842;8.926;2023-04-24T12:17:36;2.67;;;2.30;;
1400;SDS011;46518;48.842;8.926;2023-04-24T12:20:10;2.50;;;2.30;;
1400;SDS011;46518;48.842;8.926;2023-04-24T12:22:43;2.83;;;2.63;;
1400;SDS011;46518;48.842;8.926;2023-04-24T12:25:14;2.63;;;2.28;;
1400;SDS011;46518;48.842;8.926;2023-04-24T12:27:44;3.35;;;2.53;;
1400;SDS011;46518;48.842;8.926;2023-04-24T12:30:13;2.72;;;2.40;;
1400;SDS011;46518;48.842;8.926;2023-04-24T12:32:43;2.20;;;2.00;;
1400;SDS011;46518;48.842;8.926;2023-04-24T12:35:12;2.40;;;2.20;;
1400;SDS011;46518;48.842;8.926;2023-04-24T12:37:42;2.95;;;2.13;;
1400;SDS011;46518;48.842;8.926;2023-04-24T12:40:14;3.05;;;2.40;;
1400;SDS011;46518;48.842;8.926;2023-04-24T12:42:44;2.63;;;2.42;;
1400;SDS011;46518;48.842;8.926;2023-04-24T12:45:13;2.65;;;2.45;;
1400;SDS011;46518;48.842;8.926;2023-04-24T12:47:43;2.80;;;2.60;;
1400;SDS011;46518;48.842;8.926;2023-04-24T12:50:12;3.60;;;3.20;;
1400;SDS011;46518;48.842;8.926;2023-04-24T12:52:42;3.10;;;2.83;;
1400;SDS011;46518;48.842;8.926;2023-04-24T12:55:10;3.80;;;3.40;;
1400;SDS011;46518;48.842;8.926;2023-04-24T12:57:41;3.35;;;3.05;;
1400;SDS011;46518;48.842;8.926;2023-04-24T13:00:09;3.80;;;3.50;;
1400;SDS011;46518;48.842;8.926;2023-04-24T13:02:38;3.85;;;3.55;;
1400;SDS011;46518;48.842;8.926;2023-04-24T13:05:07;4.93;;;3.60;;
1400;SDS011;46518;48.842;8.926;2023-04-24T13:07:38;5.57;;;3.60;;
1400;SDS011;46518;48.842;8.926;2023-04-24T13:10:06;3.58;;;3.30;;
1400;SDS011;46518;48.842;8.926;2023-04-24T13:12:35;3.30;;;3.10;;
1400;SDS011;46518;48.842;8.926;2023-04-24T13:15:06;4.43;;;3.95;;
1400;SDS011;46518;48.842;8.926;2023-04-24T13:17:35;5.20;;;4.70;;
1400;SDS011;46518;48.842;8.926;2023-04-24T13:20:03;2.90;;;2.60;;
1400;SDS011;46518;48.842;8.926;2023-04-24T13:22:32;10.18;;;4.00;;
1400;SDS011;46518;48.842;8.926;2023-04-24T13:25:00;3.95;;;3.65;;
1400;SDS011;46518;48.842;8.926;2023-04-24T13:27:29;3.50;;;3.20;;
1400;SDS011;46518;48.842;8.926;2023-04-24T13:29:58;4.88;;;3.72;;
1400;SDS011;46518;48.842;8.926;2023-04-24T13:32:27;3.92;;;3.33;;
1400;SDS011;46518;48.842;8.926;2023-04-24T13:34:56;3.85;;;3.45;;
1400;SDS011;46518;48.842;8.926;2023-04-24T13:37:24;3.40;;;2.85;;
1400;SDS011;46518;48.842;8.926;2023-04-24T13:39:52;4.13;;;3.80;;
1400;SDS011;46518;48.842;8.926;2023-04-24T13:42:21;3.65;;;2.47;;
1400;SDS011;46518;48.842;8.926;2023-04-24T13:44:49;3.20;;;2.90;;
1400;SDS011;46518;48.842;8.926;2023-04-24T13:47:17;4.15;;;3.55;;
1400;SDS011;46518;48.842;8.926;2023-04-24T13:49:47;3.78;;;2.85;;
1400;SDS011;46518;48.842;8.926;2023-04-24T13:52:16;4.00;;;3.60;;
1400;SDS011;46518;48.842;8.926;2023-04-24T13:54:44;3.00;;;2.67;;
1400;SDS011;46518;48.842;8.926;2023-04-24T13:57:13;3.50;;;3.20;;
1400;SDS011;46518;48.842;8.926;2023-04-24T13:59:42;4.20;;;3.67;;
1400;SDS011;46518;48.842;8.926;2023-04-24T14:02:11;3.03;;;2.70;;
1400;SDS011;46518;48.842;8.926;2023-04-24T14:04:40;4.68;;;4.03;;
1400;SDS011;46518;48.842;8.926;2023-04-24T14:07:09;3.20;;;3.00;;
1400;SDS011;46518;48.842;8.926;2023-04-24T14:09:38;3.67;;;3.30;;
1400;SDS011;46518;48.842;8.926;2023-04-24T14:12:06;4.60;;;3.70;;
1400;SDS011;46518;48.842;8.926;2023-04-24T14:14:34;3.75;;;2.88;;
1400;SDS011;46518;48.842;8.926;2023-04-24T14:17:02;3.75;;;2.58;;
1400;SDS011;46518;48.842;8.926;2023-04-24T14:19:31;3.63;;;3.33;;
1400;SDS011;46518;48.842;8.926;2023-04-24T14:21:59;3.63;;;3.33;;
1400;SDS011;46518;48.842;8.926;2023-04-24T14:24:29;2.72;;;2.53;;
1400;SDS011;46518;48.842;8.926;2023-04-24T14:26:57;3.90;;;2.70;;
1400;SDS011;46518;48.842;8.926;2023-04-24T14:29:26;3.80;;;3.40;;
1400;SDS011;46518;48.842;8.926;2023-04-24T14:31:54;3.80;;;2.58;;
1400;SDS011;46518;48.842;8.926;2023-04-24T14:34:22;2.97;;;2.67;;
1400;SDS011;46518;48.842;8.926;2023-04-24T14:36:52;3.40;;;2.90;;
1400;SDS011;46518;48.842;8.926;2023-04-24T14:39:20;4.90;;;3.35;;
1400;SDS011;46518;48.842;8.926;2023-04-24T14:41:50;4.45;;;3.47;;
1400;SDS011;46518;48.842;8.926;2023-04-24T14:44:18;3.60;;;3.30;;
1400;SDS011;46518;48.842;8.926;2023-04-24T14:46:46;3.60;;;3.30;;
1400;SDS011;46518;48.842;8.926;2023-04-24T14:49:15;4.90;;;3.35;;
1400;SDS011;46518;48.842;8.926;2023-04-24T14:51:44;3.60;;;3.30;;
1400;SDS011;46518;48.842;8.926;2023-04-24T14:54:12;4.05;;;3.28;;
1400;SDS011;46518;48.842;8.926;2023-04-24T14:56:41;3.20;;;2.90;;
1400;SDS011;46518;48.842;8.926;2023-04-24T14:59:12;3.72;;;3.03;;
1400;SDS011;46518;48.842;8.926;2023-04-24T15:01:40;4.80;;;2.72;;
1400;SDS011;46518;48.842;8.926;2023-04-24T15:04:08;3.75;;;2.80;;
1400;SDS011;46518;48.842;8.926;2023-04-24T15:06:37;3.15;;;2.95;;
1400;SDS011;46518;48.842;8.926;2023-04-24T15:09:05;3.33;;;3.03;;
1400;SDS011;46518;48.842;8.926;2023-04-24T15:11:34;3.05;;;2.85;;
1400;SDS011;46518;48.842;8.926;2023-04-24T15:14:02;3.85;;;2.38;;
1400;SDS011;46518;48.842;8.926;2023-04-24T15:16:32;4.05;;;2.10;;
1400;SDS011;46518;48.842;8.926;2023-04-24T15:19:00;3.47;;;2.08;;
1400;SDS011;46518;48.842;8.926;2023-04-24T15:21:29;3.35;;;2.47;;